sensor_id;sensor_type;location;lat;lon;timestamp;P1;durP1;ratioP1;P2;durP2;ratioP2
59734;SDS011;64362;45.620;4.920;2023-05-20T00:00:07;6.88;;;3.03;;
59734;SDS011;64362;45.620;4.920;2023-05-20T00:02:33;4.18;;;3.28;;
59734;SDS011;64362;45.620;4.920;2023-05-20T00:04:59;3.95;;;3.05;;
59734;SDS011;64362;45.620;4.920;2023-05-20T00:07:27;3.72;;;3.00;;
59734;SDS011;64362;45.620;4.920;2023-05-20T00:09:53;4.43;;;3.35;;
59734;SDS011;64362;45.620;4.920;2023-05-20T00:12:18;4.72;;;3.10;;
59734;SDS011;64362;45.620;4.920;2023-05-20T00:14:44;5.22;;;3.28;;
59734;SDS011;64362;45.620;4.920;2023-05-20T00:17:09;5.45;;;3.40;;
59734;SDS011;64362;45.620;4.920;2023-05-20T00:19:35;6.53;;;3.30;;
59734;SDS011;64362;45.620;4.920;2023-05-20T00:22:00;7.72;;;3.47;;
59734;SDS011;64362;45.620;4.920;2023-05-20T00:24:26;4.10;;;3.30;;
59734;SDS011;64362;45.620;4.920;2023-05-20T00:26:52;4.28;;;3.22;;
59734;SDS011;64362;45.620;4.920;2023-05-20T00:29:18;4.85;;;3.25;;
59734;SDS011;64362;45.620;4.920;2023-05-20T00:31:45;3.75;;;3.13;;
59734;SDS011;64362;45.620;4.920;2023-05-20T00:34:11;4.15;;;3.05;;
59734;SDS011;64362;45.620;4.920;2023-05-20T00:36:36;5.40;;;3.20;;
59734;SDS011;64362;45.620;4.920;2023-05-20T00:39:02;3.97;;;3.10;;
59734;SDS011;64362;45.620;4.920;2023-05-20T00:41:27;4.95;;;3.25;;
59734;SDS011;64362;45.620;4.920;2023-05-20T00:43:53;6.07;;;3.20;;
59734;SDS011;64362;45.620;4.920;2023-05-20T00:46:19;4.13;;;3.00;;
59734;SDS011;64362;45.620;4.920;2023-05-20T00:48:45;5.38;;;3.20;;
59734;SDS011;64362;45.620;4.920;2023-05-20T00:51:11;4.93;;;3.00;;
59734;SDS011;64362;45.620;4.920;2023-05-20T00:53:38;4.28;;;3.20;;
59734;SDS011;64362;45.620;4.920;2023-05-20T00:56:04;5.30;;;3.38;;
59734;SDS011;64362;45.620;4.920;2023-05-20T00:58:30;5.00;;;3.20;;
59734;SDS011;64362;45.620;4.920;2023-05-20T01:00:56;3.65;;;2.83;;
59734;SDS011;64362;45.620;4.920;2023-05-20T01:03:22;4.35;;;3.10;;
59734;SDS011;64362;45.620;4.920;2023-05-20T01:05:47;4.45;;;3.40;;
59734;SDS011;64362;45.620;4.920;2023-05-20T01:08:13;4.85;;;3.35;;
59734;SDS011;64362;45.620;4.920;2023-05-20T01:10:40;5.22;;;3.42;;
59734;SDS011;64362;45.620;4.920;2023-05-20T01:13:07;4.32;;;3.10;;
59734;SDS011;64362;45.620;4.920;2023-05-20T01:15:35;4.95;;;2.90;;
59734;SDS011;64362;45.620;4.920;2023-05-20T01:18:03;3.80;;;3.13;;
59734;SDS011;64362;45.620;4.920;2023-05-20T01:20:29;5.53;;;3.40;;
59734;SDS011;64362;45.620;4.920;2023-05-20T01:22:56;3.75;;;3.22;;
59734;SDS011;64362;45.620;4.920;2023-05-20T01:25:22;5.35;;;2.75;;
59734;SDS011;64362;45.620;4.920;2023-05-20T01:27:49;4.93;;;3.13;;
59734;SDS011;64362;45.620;4.920;2023-05-20T01:30:17;4.38;;;3.30;;
59734;SDS011;64362;45.620;4.920;2023-05-20T01:33:00;4.97;;;3.30;;
59734;SDS011;64362;45.620;4.920;2023-05-20T01:35:28;4.05;;;3.30;;
59734;SDS011;64362;45.620;4.920;2023-05-20T01:37:54;5.18;;;2.95;;
59734;SDS011;64362;45.620;4.920;2023-05-20T01:40:20;4.28;;;3.20;;
59734;SDS011;64362;45.620;4.920;2023-05-20T01:42:46;4.43;;;3.05;;
59734;SDS011;64362;45.620;4.920;2023-05-20T01:45:17;4.18;;;3.00;;
59734;SDS011;64362;45.620;4.920;2023-05-20T01:47:46;4.03;;;3.05;;
59734;SDS011;64362;45.620;4.920;2023-05-20T01:50:12;4.22;;;3.03;;
59734;SDS011;64362;45.620;4.920;2023-05-20T01:52:37;3.20;;;2.75;;
59734;SDS011;64362;45.620;4.920;2023-05-20T01:55:03;4.13;;;3.13;;
59734;SDS011;64362;45.620;4.920;2023-05-20T01:57:29;3.65;;;2.92;;
59734;SDS011;64362;45.620;4.920;2023-05-20T01:59:54;5.10;;;3.15;;
59734;SDS011;64362;45.620;4.920;2023-05-20T02:02:20;5.05;;;3.22;;
59734;SDS011;64362;45.620;4.920;2023-05-20T02:04:47;4.00;;;3.15;;
59734;SDS011;64362;45.620;4.920;2023-05-20T02:07:14;4.68;;;3.47;;
59734;SDS011;64362;45.620;4.920;2023-05-20T02:09:40;5.75;;;3.22;;
59734;SDS011;64362;45.620;4.920;2023-05-20T02:12:06;4.43;;;3.20;;
59734;SDS011;64362;45.620;4.920;2023-05-20T02:14:33;4.20;;;3.20;;
59734;SDS011;64362;45.620;4.920;2023-05-20T02:16:58;5.55;;;3.50;;
59734;SDS011;64362;45.620;4.920;2023-05-20T02:19:25;4.80;;;3.20;;
59734;SDS011;64362;45.620;4.920;2023-05-20T02:21:51;5.82;;;3.42;;
59734;SDS011;64362;45.620;4.920;2023-05-20T02:24:16;4.10;;;3.22;;
59734;SDS011;64362;45.620;4.920;2023-05-20T02:26:42;4.75;;;3.20;;
59734;SDS011;64362;45.620;4.920;2023-05-20T02:29:09;4.10;;;3.00;;
59734;SDS011;64362;45.620;4.920;2023-05-20T02:31:35;4.25;;;2.95;;
59734;SDS011;64362;45.620;4.920;2023-05-20T02:34:01;3.47;;;3.00;;
59734;SDS011;64362;45.620;4.920;2023-05-20T02:36:28;5.65;;;3.53;;
59734;SDS011;64362;45.620;4.920;2023-05-20T02:38:53;4.70;;;3.15;;
59734;SDS011;64362;45.620;4.920;2023-05-20T02:41:21;4.85;;;3.20;;
59734;SDS011;64362;45.620;4.920;2023-05-20T02:43:47;3.92;;;3.00;;
59734;SDS011;64362;45.620;4.920;2023-05-20T02:46:12;4.65;;;3.60;;
59734;SDS011;64362;45.620;4.920;2023-05-20T02:48:38;4.28;;;3.30;;
59734;SDS011;64362;45.620;4.920;2023-05-20T02:51:04;3.92;;;2.75;;
59734;SDS011;64362;45.620;4.920;2023-05-20T02:53:29;3.72;;;3.25;;
59734;SDS011;64362;45.620;4.920;2023-05-20T02:55:56;3.88;;;3.10;;
59734;SDS011;64362;45.620;4.920;2023-05-20T02:58:22;4.90;;;2.97;;
59734;SDS011;64362;45.620;4.920;2023-05-20T03:00:51;3.67;;;2.85;;
59734;SDS011;64362;45.620;4.920;2023-05-20T03:03:18;3.55;;;3.20;;
59734;SDS011;64362;45.620;4.920;2023-05-20T03:05:43;5.53;;;3.53;;
59734;SDS011;64362;45.620;4.920;2023-05-20T03:08:10;4.03;;;3.00;;
59734;SDS011;64362;45.620;4.920;2023-05-20T03:10:36;4.32;;;3.10;;
59734;SDS011;64362;45.620;4.920;2023-05-20T03:13:03;5.22;;;3.42;;
59734;SDS011;64362;45.620;4.920;2023-05-20T03:15:34;4.35;;;3.13;;
59734;SDS011;64362;45.620;4.920;2023-05-20T03:18:00;5.38;;;3.15;;
59734;SDS011;64362;45.620;4.920;2023-05-20T03:20:26;3.78;;;3.08;;
59734;SDS011;64362;45.620;4.920;2023-05-20T03:22:54;3.95;;;3.35;;
59734;SDS011;64362;45.620;4.920;2023-05-20T03:25:20;4.10;;;3.20;;
59734;SDS011;64362;45.620;4.920;2023-05-20T03:27:46;4.68;;;3.20;;
59734;SDS011;64362;45.620;4.920;2023-05-20T03:30:12;3.65;;;3.15;;
59734;SDS011;64362;45.620;4.920;2023-05-20T03:32:38;4.45;;;2.90;;
59734;SDS011;64362;45.620;4.920;2023-05-20T03:35:04;4.20;;;3.00;;
59734;SDS011;64362;45.620;4.920;2023-05-20T03:37:30;5.40;;;3.78;;
59734;SDS011;64362;45.620;4.920;2023-05-20T03:39:56;4.95;;;3.20;;
59734;SDS011;64362;45.620;4.920;2023-05-20T03:42:22;3.42;;;2.80;;
59734;SDS011;64362;45.620;4.920;2023-05-20T03:44:48;3.92;;;2.88;;
59734;SDS011;64362;45.620;4.920;2023-05-20T03:47:14;3.85;;;3.10;;
59734;SDS011;64362;45.620;4.920;2023-05-20T03:49:40;4.20;;;2.92;;
59734;SDS011;64362;45.620;4.920;2023-05-20T03:52:05;5.15;;;3.20;;
59734;SDS011;64362;45.620;4.920;2023-05-20T03:54:32;4.35;;;3.15;;
59734;SDS011;64362;45.620;4.920;2023-05-20T03:56:59;3.42;;;2.70;;
59734;SDS011;64362;45.620;4.920;2023-05-20T03:59:25;4.32;;;2.90;;
59734;SDS011;64362;45.620;4.920;2023-05-20T04:01:51;3.78;;;3.13;;
59734;SDS011;64362;45.620;4.920;2023-05-20T04:04:17;4.20;;;3.13;;
59734;SDS011;64362;45.620;4.920;2023-05-20T04:06:42;4.53;;;3.40;;
59734;SDS011;64362;45.620;4.920;2023-05-20T04:09:08;3.78;;;2.92;;
59734;SDS011;64362;45.620;4.920;2023-05-20T04:11:33;3.97;;;3.08;;
59734;SDS011;64362;45.620;4.920;2023-05-20T04:13:59;4.85;;;3.03;;
59734;SDS011;64362;45.620;4.920;2023-05-20T04:16:25;4.35;;;3.13;;
59734;SDS011;64362;45.620;4.920;2023-05-20T04:18:50;4.50;;;2.95;;
59734;SDS011;64362;45.620;4.920;2023-05-20T04:21:17;3.30;;;2.97;;
59734;SDS011;64362;45.620;4.920;2023-05-20T04:23:44;4.10;;;3.05;;
59734;SDS011;64362;45.620;4.920;2023-05-20T04:26:09;3.70;;;2.97;;
59734;SDS011;64362;45.620;4.920;2023-05-20T04:28:34;4.05;;;3.30;;
59734;SDS011;64362;45.620;4.920;2023-05-20T04:31:02;4.13;;;2.88;;
59734;SDS011;64362;45.620;4.920;2023-05-20T04:33:33;4.40;;;3.00;;
59734;SDS011;64362;45.620;4.920;2023-05-20T04:36:02;3.80;;;3.33;;
59734;SDS011;64362;45.620;4.920;2023-05-20T04:38:29;3.38;;;2.80;;
59734;SDS011;64362;45.620;4.920;2023-05-20T04:41:00;6.15;;;3.20;;
59734;SDS011;64362;45.620;4.920;2023-05-20T04:43:27;5.40;;;3.42;;
59734;SDS011;64362;45.620;4.920;2023-05-20T04:45:55;3.30;;;3.00;;
59734;SDS011;64362;45.620;4.920;2023-05-20T04:48:21;3.83;;;2.80;;
59734;SDS011;64362;45.620;4.920;2023-05-20T04:50:47;4.28;;;3.08;;
59734;SDS011;64362;45.620;4.920;2023-05-20T04:53:16;3.95;;;2.80;;
59734;SDS011;64362;45.620;4.920;2023-05-20T04:55:43;5.35;;;3.25;;
59734;SDS011;64362;45.620;4.920;2023-05-20T04:58:10;4.47;;;3.03;;
59734;SDS011;64362;45.620;4.920;2023-05-20T05:00:43;4.78;;;3.00;;
59734;SDS011;64362;45.620;4.920;2023-05-20T05:03:09;4.60;;;3.17;;
59734;SDS011;64362;45.620;4.920;2023-05-20T05:05:40;3.83;;;3.22;;
59734;SDS011;64362;45.620;4.920;2023-05-20T05:08:07;3.35;;;2.85;;
59734;SDS011;64362;45.620;4.920;2023-05-20T05:10:38;5.15;;;2.90;;
59734;SDS011;64362;45.620;4.920;2023-05-20T05:13:03;3.97;;;3.00;;
59734;SDS011;64362;45.620;4.920;2023-05-20T05:15:30;4.07;;;3.05;;
59734;SDS011;64362;45.620;4.920;2023-05-20T05:17:55;5.10;;;3.17;;
59734;SDS011;64362;45.620;4.920;2023-05-20T05:20:21;5.38;;;3.30;;
59734;SDS011;64362;45.620;4.920;2023-05-20T05:22:46;5.80;;;3.15;;
59734;SDS011;64362;45.620;4.920;2023-05-20T05:25:14;4.18;;;3.42;;
59734;SDS011;64362;45.620;4.920;2023-05-20T05:27:40;5.28;;;3.05;;
59734;SDS011;64362;45.620;4.920;2023-05-20T05:30:06;5.15;;;3.42;;
59734;SDS011;64362;45.620;4.920;2023-05-20T05:32:32;4.43;;;3.42;;
59734;SDS011;64362;45.620;4.920;2023-05-20T05:34:58;4.20;;;3.10;;
59734;SDS011;64362;45.620;4.920;2023-05-20T05:37:23;4.38;;;2.97;;
59734;SDS011;64362;45.620;4.920;2023-05-20T05:39:50;5.60;;;3.67;;
59734;SDS011;64362;45.620;4.920;2023-05-20T05:42:15;4.75;;;3.38;;
59734;SDS011;64362;45.620;4.920;2023-05-20T05:44:41;4.05;;;3.13;;
59734;SDS011;64362;45.620;4.920;2023-05-20T05:47:07;5.03;;;3.50;;
59734;SDS011;64362;45.620;4.920;2023-05-20T05:49:33;5.10;;;3.22;;
59734;SDS011;64362;45.620;4.920;2023-05-20T05:51:58;4.78;;;3.33;;
59734;SDS011;64362;45.620;4.920;2023-05-20T05:54:24;5.78;;;3.10;;
59734;SDS011;64362;45.620;4.920;2023-05-20T05:56:51;4.85;;;3.55;;
59734;SDS011;64362;45.620;4.920;2023-05-20T05:59:18;5.05;;;3.45;;
59734;SDS011;64362;45.620;4.920;2023-05-20T06:01:44;6.38;;;3.88;;
59734;SDS011;64362;45.620;4.920;2023-05-20T06:04:10;4.28;;;3.45;;
59734;SDS011;64362;45.620;4.920;2023-05-20T06:06:35;4.40;;;3.42;;
59734;SDS011;64362;45.620;4.920;2023-05-20T06:09:01;4.82;;;3.40;;
59734;SDS011;64362;45.620;4.920;2023-05-20T06:11:27;5.28;;;3.60;;
59734;SDS011;64362;45.620;4.920;2023-05-20T06:13:53;4.43;;;3.47;;
59734;SDS011;64362;45.620;4.920;2023-05-20T06:16:19;3.92;;;3.20;;
59734;SDS011;64362;45.620;4.920;2023-05-20T06:18:45;4.00;;;3.10;;
59734;SDS011;64362;45.620;4.920;2023-05-20T06:21:11;4.40;;;3.78;;
59734;SDS011;64362;45.620;4.920;2023-05-20T06:23:37;6.65;;;3.58;;
59734;SDS011;64362;45.620;4.920;2023-05-20T06:26:05;4.40;;;2.92;;
59734;SDS011;64362;45.620;4.920;2023-05-20T06:28:30;5.38;;;3.17;;
59734;SDS011;64362;45.620;4.920;2023-05-20T06:30:56;4.22;;;3.53;;
59734;SDS011;64362;45.620;4.920;2023-05-20T06:33:23;4.55;;;3.35;;
59734;SDS011;64362;45.620;4.920;2023-05-20T06:35:53;6.13;;;3.40;;
59734;SDS011;64362;45.620;4.920;2023-05-20T06:38:19;5.38;;;3.75;;
59734;SDS011;64362;45.620;4.920;2023-05-20T06:40:45;5.65;;;3.75;;
59734;SDS011;64362;45.620;4.920;2023-05-20T06:43:12;5.10;;;3.83;;
59734;SDS011;64362;45.620;4.920;2023-05-20T06:45:46;4.83;;;3.90;;
59734;SDS011;64362;45.620;4.920;2023-05-20T06:48:34;6.45;;;3.88;;
59734;SDS011;64362;45.620;4.920;2023-05-20T06:51:00;4.93;;;3.67;;
59734;SDS011;64362;45.620;4.920;2023-05-20T06:53:25;4.95;;;3.70;;
59734;SDS011;64362;45.620;4.920;2023-05-20T06:55:52;5.20;;;3.28;;
59734;SDS011;64362;45.620;4.920;2023-05-20T06:58:22;4.47;;;3.55;;
59734;SDS011;64362;45.620;4.920;2023-05-20T07:00:47;4.25;;;3.40;;
59734;SDS011;64362;45.620;4.920;2023-05-20T07:03:14;4.78;;;3.95;;
59734;SDS011;64362;45.620;4.920;2023-05-20T07:05:39;5.70;;;3.88;;
59734;SDS011;64362;45.620;4.920;2023-05-20T07:08:07;5.07;;;4.07;;
59734;SDS011;64362;45.620;4.920;2023-05-20T07:10:32;4.07;;;3.50;;
59734;SDS011;64362;45.620;4.920;2023-05-20T07:12:58;5.75;;;3.75;;
59734;SDS011;64362;45.620;4.920;2023-05-20T07:15:25;6.05;;;3.85;;
59734;SDS011;64362;45.620;4.920;2023-05-20T07:17:52;4.93;;;4.00;;
59734;SDS011;64362;45.620;4.920;2023-05-20T07:20:18;4.57;;;3.60;;
59734;SDS011;64362;45.620;4.920;2023-05-20T07:22:43;5.20;;;3.70;;
59734;SDS011;64362;45.620;4.920;2023-05-20T07:25:20;4.45;;;3.45;;
59734;SDS011;64362;45.620;4.920;2023-05-20T07:27:45;6.07;;;3.88;;
59734;SDS011;64362;45.620;4.920;2023-05-20T07:30:11;7.10;;;4.15;;
59734;SDS011;64362;45.620;4.920;2023-05-20T07:32:39;4.57;;;3.50;;
59734;SDS011;64362;45.620;4.920;2023-05-20T07:35:04;4.28;;;3.35;;
59734;SDS011;64362;45.620;4.920;2023-05-20T07:37:30;5.18;;;4.00;;
59734;SDS011;64362;45.620;4.920;2023-05-20T07:39:56;5.47;;;3.88;;
59734;SDS011;64362;45.620;4.920;2023-05-20T07:42:21;5.43;;;3.95;;
59734;SDS011;64362;45.620;4.920;2023-05-20T07:44:50;5.13;;;3.75;;
59734;SDS011;64362;45.620;4.920;2023-05-20T07:47:15;4.40;;;3.47;;
59734;SDS011;64362;45.620;4.920;2023-05-20T07:49:41;5.40;;;3.75;;
59734;SDS011;64362;45.620;4.920;2023-05-20T07:52:08;5.90;;;3.67;;
59734;SDS011;64362;45.620;4.920;2023-05-20T07:54:34;5.30;;;4.30;;
59734;SDS011;64362;45.620;4.920;2023-05-20T07:57:01;6.13;;;4.63;;
59734;SDS011;64362;45.620;4.920;2023-05-20T07:59:28;4.78;;;4.05;;
59734;SDS011;64362;45.620;4.920;2023-05-20T08:01:53;5.28;;;3.97;;
59734;SDS011;64362;45.620;4.920;2023-05-20T08:04:19;5.20;;;4.13;;
59734;SDS011;64362;45.620;4.920;2023-05-20T08:06:45;6.93;;;4.15;;
59734;SDS011;64362;45.620;4.920;2023-05-20T08:09:18;7.55;;;5.15;;
59734;SDS011;64362;45.620;4.920;2023-05-20T08:11:48;5.68;;;4.40;;
59734;SDS011;64362;45.620;4.920;2023-05-20T08:14:14;5.40;;;4.10;;
59734;SDS011;64362;45.620;4.920;2023-05-20T08:16:42;5.75;;;4.10;;
59734;SDS011;64362;45.620;4.920;2023-05-20T08:19:07;4.97;;;3.78;;
59734;SDS011;64362;45.620;4.920;2023-05-20T08:21:33;5.55;;;4.00;;
59734;SDS011;64362;45.620;4.920;2023-05-20T08:23:59;5.13;;;4.20;;
59734;SDS011;64362;45.620;4.920;2023-05-20T08:26:26;5.18;;;4.05;;
59734;SDS011;64362;45.620;4.920;2023-05-20T08:28:51;4.32;;;3.83;;
59734;SDS011;64362;45.620;4.920;2023-05-20T08:31:17;5.50;;;4.15;;
59734;SDS011;64362;45.620;4.920;2023-05-20T08:33:43;5.47;;;4.05;;
59734;SDS011;64362;45.620;4.920;2023-05-20T08:36:09;4.85;;;4.20;;
59734;SDS011;64362;45.620;4.920;2023-05-20T08:38:34;5.68;;;3.95;;
59734;SDS011;64362;45.620;4.920;2023-05-20T08:41:00;5.70;;;3.95;;
59734;SDS011;64362;45.620;4.920;2023-05-20T08:43:26;5.03;;;4.00;;
59734;SDS011;64362;45.620;4.920;2023-05-20T08:45:51;4.97;;;4.30;;
59734;SDS011;64362;45.620;4.920;2023-05-20T08:48:18;5.25;;;4.13;;
59734;SDS011;64362;45.620;4.920;2023-05-20T08:50:45;4.55;;;3.92;;
59734;SDS011;64362;45.620;4.920;2023-05-20T08:53:14;5.38;;;4.05;;
59734;SDS011;64362;45.620;4.920;2023-05-20T08:56:01;5.57;;;5.00;;
59734;SDS011;64362;45.620;4.920;2023-05-20T08:58:27;5.72;;;4.28;;
59734;SDS011;64362;45.620;4.920;2023-05-20T09:00:53;5.60;;;3.97;;
59734;SDS011;64362;45.620;4.920;2023-05-20T09:03:19;5.78;;;3.88;;
59734;SDS011;64362;45.620;4.920;2023-05-20T09:05:45;4.05;;;3.58;;
59734;SDS011;64362;45.620;4.920;2023-05-20T09:08:11;5.10;;;4.07;;
59734;SDS011;64362;45.620;4.920;2023-05-20T09:10:38;5.93;;;4.15;;
59734;SDS011;64362;45.620;4.920;2023-05-20T09:13:04;5.38;;;4.22;;
59734;SDS011;64362;45.620;4.920;2023-05-20T09:15:31;4.68;;;3.92;;
59734;SDS011;64362;45.620;4.920;2023-05-20T09:18:01;5.20;;;4.15;;
59734;SDS011;64362;45.620;4.920;2023-05-20T09:20:28;4.80;;;4.13;;
59734;SDS011;64362;45.620;4.920;2023-05-20T09:22:58;4.05;;;3.65;;
59734;SDS011;64362;45.620;4.920;2023-05-20T09:25:24;5.07;;;4.13;;
59734;SDS011;64362;45.620;4.920;2023-05-20T09:27:50;5.25;;;4.63;;
59734;SDS011;64362;45.620;4.920;2023-05-20T09:30:19;5.00;;;4.30;;
59734;SDS011;64362;45.620;4.920;2023-05-20T09:32:45;6.00;;;4.03;;
59734;SDS011;64362;45.620;4.920;2023-05-20T09:35:17;5.13;;;4.43;;
59734;SDS011;64362;45.620;4.920;2023-05-20T09:37:43;4.82;;;3.95;;
59734;SDS011;64362;45.620;4.920;2023-05-20T09:40:17;5.53;;;4.40;;
59734;SDS011;64362;45.620;4.920;2023-05-20T09:42:52;5.38;;;4.18;;
59734;SDS011;64362;45.620;4.920;2023-05-20T09:45:21;6.43;;;4.15;;
59734;SDS011;64362;45.620;4.920;2023-05-20T09:47:47;5.13;;;3.95;;
59734;SDS011;64362;45.620;4.920;2023-05-20T09:50:14;6.30;;;4.22;;
59734;SDS011;64362;45.620;4.920;2023-05-20T09:52:40;5.68;;;4.40;;
59734;SDS011;64362;45.620;4.920;2023-05-20T09:55:07;5.15;;;4.40;;
59734;SDS011;64362;45.620;4.920;2023-05-20T09:57:35;5.43;;;4.05;;
59734;SDS011;64362;45.620;4.920;2023-05-20T10:00:02;5.00;;;4.35;;
59734;SDS011;64362;45.620;4.920;2023-05-20T10:02:37;5.25;;;4.28;;
59734;SDS011;64362;45.620;4.920;2023-05-20T10:05:06;7.82;;;4.53;;
59734;SDS011;64362;45.620;4.920;2023-05-20T10:11:17;6.47;;;4.43;;
59734;SDS011;64362;45.620;4.920;2023-05-20T10:16:45;5.07;;;4.28;;
59734;SDS011;64362;45.620;4.920;2023-05-20T10:19:34;5.78;;;4.57;;
59734;SDS011;64362;45.620;4.920;2023-05-20T10:24:29;6.00;;;4.18;;
59734;SDS011;64362;45.620;4.920;2023-05-20T10:26:57;5.82;;;4.35;;
59734;SDS011;64362;45.620;4.920;2023-05-20T10:29:23;5.90;;;4.32;;
59734;SDS011;64362;45.620;4.920;2023-05-20T10:31:49;6.07;;;4.47;;
59734;SDS011;64362;45.620;4.920;2023-05-20T10:34:19;5.30;;;4.43;;
59734;SDS011;64362;45.620;4.920;2023-05-20T10:39:29;6.63;;;4.75;;
59734;SDS011;64362;45.620;4.920;2023-05-20T10:42:06;5.70;;;4.97;;
59734;SDS011;64362;45.620;4.920;2023-05-20T10:45:06;6.30;;;4.72;;
59734;SDS011;64362;45.620;4.920;2023-05-20T10:47:24;5.80;;;4.47;;
59734;SDS011;64362;45.620;4.920;2023-05-20T10:49:50;5.22;;;4.47;;
59734;SDS011;64362;45.620;4.920;2023-05-20T10:52:16;5.70;;;4.50;;
59734;SDS011;64362;45.620;4.920;2023-05-20T10:55:03;7.30;;;5.00;;
59734;SDS011;64362;45.620;4.920;2023-05-20T10:57:29;5.72;;;4.47;;
59734;SDS011;64362;45.620;4.920;2023-05-20T10:59:56;6.25;;;4.45;;
59734;SDS011;64362;45.620;4.920;2023-05-20T11:02:22;6.13;;;4.63;;
59734;SDS011;64362;45.620;4.920;2023-05-20T11:04:51;6.10;;;5.00;;
59734;SDS011;64362;45.620;4.920;2023-05-20T11:07:24;5.43;;;4.35;;
59734;SDS011;64362;45.620;4.920;2023-05-20T11:09:53;5.68;;;4.70;;
59734;SDS011;64362;45.620;4.920;2023-05-20T11:12:20;6.90;;;5.15;;
59734;SDS011;64362;45.620;4.920;2023-05-20T11:14:47;7.43;;;5.20;;
59734;SDS011;64362;45.620;4.920;2023-05-20T11:17:13;6.65;;;5.28;;
59734;SDS011;64362;45.620;4.920;2023-05-20T11:19:40;6.20;;;4.30;;
59734;SDS011;64362;45.620;4.920;2023-05-20T11:22:08;5.78;;;4.75;;
59734;SDS011;64362;45.620;4.920;2023-05-20T11:24:34;5.65;;;4.88;;
59734;SDS011;64362;45.620;4.920;2023-05-20T11:26:59;6.22;;;4.63;;
59734;SDS011;64362;45.620;4.920;2023-05-20T11:29:26;5.75;;;4.57;;
59734;SDS011;64362;45.620;4.920;2023-05-20T11:31:53;6.78;;;4.57;;
59734;SDS011;64362;45.620;4.920;2023-05-20T11:34:22;6.50;;;4.40;;
59734;SDS011;64362;45.620;4.920;2023-05-20T11:36:48;6.18;;;5.03;;
59734;SDS011;64362;45.620;4.920;2023-05-20T11:39:20;6.15;;;4.82;;
59734;SDS011;64362;45.620;4.920;2023-05-20T11:41:46;5.80;;;5.25;;
59734;SDS011;64362;45.620;4.920;2023-05-20T11:44:11;6.00;;;5.28;;
59734;SDS011;64362;45.620;4.920;2023-05-20T11:46:41;6.97;;;4.97;;
59734;SDS011;64362;45.620;4.920;2023-05-20T11:49:08;5.38;;;4.60;;
59734;SDS011;64362;45.620;4.920;2023-05-20T11:51:33;5.20;;;4.70;;
59734;SDS011;64362;45.620;4.920;2023-05-20T11:54:02;6.85;;;5.22;;
59734;SDS011;64362;45.620;4.920;2023-05-20T11:56:29;5.78;;;5.22;;
59734;SDS011;64362;45.620;4.920;2023-05-20T11:58:56;6.78;;;5.38;;
59734;SDS011;64362;45.620;4.920;2023-05-20T12:01:23;7.05;;;4.90;;
59734;SDS011;64362;45.620;4.920;2023-05-20T12:03:48;6.00;;;4.88;;
59734;SDS011;64362;45.620;4.920;2023-05-20T12:06:13;6.45;;;5.22;;
59734;SDS011;64362;45.620;4.920;2023-05-20T12:08:41;5.22;;;4.60;;
59734;SDS011;64362;45.620;4.920;2023-05-20T12:11:06;5.63;;;5.03;;
59734;SDS011;64362;45.620;4.920;2023-05-20T12:13:31;5.72;;;4.72;;
59734;SDS011;64362;45.620;4.920;2023-05-20T12:15:57;7.30;;;5.32;;
59734;SDS011;64362;45.620;4.920;2023-05-20T12:18:22;6.05;;;4.80;;
59734;SDS011;64362;45.620;4.920;2023-05-20T12:20:48;5.47;;;4.68;;
59734;SDS011;64362;45.620;4.920;2023-05-20T12:23:13;7.35;;;5.03;;
59734;SDS011;64362;45.620;4.920;2023-05-20T12:25:39;6.55;;;4.95;;
59734;SDS011;64362;45.620;4.920;2023-05-20T12:28:04;4.90;;;4.40;;
59734;SDS011;64362;45.620;4.920;2023-05-20T12:30:31;6.10;;;4.60;;
59734;SDS011;64362;45.620;4.920;2023-05-20T12:32:56;6.28;;;4.75;;
59734;SDS011;64362;45.620;4.920;2023-05-20T12:35:34;6.68;;;5.00;;
59734;SDS011;64362;45.620;4.920;2023-05-20T12:38:10;5.85;;;4.60;;
59734;SDS011;64362;45.620;4.920;2023-05-20T12:40:35;6.05;;;4.80;;
59734;SDS011;64362;45.620;4.920;2023-05-20T12:43:02;6.28;;;4.93;;
59734;SDS011;64362;45.620;4.920;2023-05-20T12:45:28;5.22;;;4.63;;
59734;SDS011;64362;45.620;4.920;2023-05-20T12:47:53;7.00;;;4.78;;
59734;SDS011;64362;45.620;4.920;2023-05-20T12:50:19;5.10;;;4.60;;
59734;SDS011;64362;45.620;4.920;2023-05-20T12:52:45;6.10;;;4.47;;
59734;SDS011;64362;45.620;4.920;2023-05-20T12:55:11;5.93;;;4.57;;
59734;SDS011;64362;45.620;4.920;2023-05-20T12:57:39;5.53;;;5.00;;
59734;SDS011;64362;45.620;4.920;2023-05-20T13:00:06;5.38;;;4.88;;
59734;SDS011;64362;45.620;4.920;2023-05-20T13:02:32;4.90;;;4.40;;
59734;SDS011;64362;45.620;4.920;2023-05-20T13:04:58;5.55;;;5.03;;
59734;SDS011;64362;45.620;4.920;2023-05-20T13:07:24;6.55;;;5.03;;
59734;SDS011;64362;45.620;4.920;2023-05-20T13:09:51;7.28;;;5.22;;
59734;SDS011;64362;45.620;4.920;2023-05-20T13:12:16;6.75;;;4.78;;
59734;SDS011;64362;45.620;4.920;2023-05-20T13:14:42;4.75;;;4.22;;
59734;SDS011;64362;45.620;4.920;2023-05-20T13:17:07;5.20;;;4.50;;
59734;SDS011;64362;45.620;4.920;2023-05-20T13:19:33;5.22;;;4.70;;
59734;SDS011;64362;45.620;4.920;2023-05-20T13:21:58;5.80;;;4.50;;
59734;SDS011;64362;45.620;4.920;2023-05-20T13:24:24;5.50;;;4.90;;
59734;SDS011;64362;45.620;4.920;2023-05-20T13:26:50;5.38;;;4.70;;
59734;SDS011;64362;45.620;4.920;2023-05-20T13:29:15;5.85;;;4.60;;
59734;SDS011;64362;45.620;4.920;2023-05-20T13:31:41;5.47;;;4.78;;
59734;SDS011;64362;45.620;4.920;2023-05-20T13:34:06;5.80;;;4.68;;
59734;SDS011;64362;45.620;4.920;2023-05-20T13:36:32;6.65;;;5.13;;
59734;SDS011;64362;45.620;4.920;2023-05-20T13:38:58;5.28;;;4.78;;
59734;SDS011;64362;45.620;4.920;2023-05-20T13:41:23;5.10;;;4.60;;
59734;SDS011;64362;45.620;4.920;2023-05-20T13:43:50;5.35;;;4.85;;
59734;SDS011;64362;45.620;4.920;2023-05-20T13:46:16;6.72;;;4.55;;
59734;SDS011;64362;45.620;4.920;2023-05-20T13:48:42;6.28;;;4.90;;
59734;SDS011;64362;45.620;4.920;2023-05-20T13:51:07;5.30;;;4.80;;
59734;SDS011;64362;45.620;4.920;2023-05-20T13:53:33;5.53;;;4.68;;
59734;SDS011;64362;45.620;4.920;2023-05-20T13:55:58;5.00;;;4.40;;
59734;SDS011;64362;45.620;4.920;2023-05-20T13:58:24;5.85;;;4.43;;
59734;SDS011;64362;45.620;4.920;2023-05-20T14:00:57;5.20;;;4.70;;
59734;SDS011;64362;45.620;4.920;2023-05-20T14:03:36;5.20;;;4.70;;
59734;SDS011;64362;45.620;4.920;2023-05-20T14:06:03;5.45;;;4.50;;
59734;SDS011;64362;45.620;4.920;2023-05-20T14:08:35;5.70;;;4.75;;
59734;SDS011;64362;45.620;4.920;2023-05-20T14:11:07;6.43;;;4.60;;
59734;SDS011;64362;45.620;4.920;2023-05-20T14:16:26;5.30;;;4.80;;
59734;SDS011;64362;45.620;4.920;2023-05-20T14:18:58;4.85;;;4.38;;
59734;SDS011;64362;45.620;4.920;2023-05-20T14:21:24;5.57;;;4.82;;
59734;SDS011;64362;45.620;4.920;2023-05-20T14:23:57;5.97;;;5.13;;
59734;SDS011;64362;45.620;4.920;2023-05-20T14:26:22;5.82;;;4.80;;
59734;SDS011;64362;45.620;4.920;2023-05-20T14:28:54;5.13;;;4.55;;
59734;SDS011;64362;45.620;4.920;2023-05-20T14:31:26;5.22;;;4.20;;
59734;SDS011;64362;45.620;4.920;2023-05-20T14:33:52;4.63;;;4.20;;
59734;SDS011;64362;45.620;4.920;2023-05-20T14:36:23;6.40;;;4.82;;
59734;SDS011;64362;45.620;4.920;2023-05-20T14:38:49;4.80;;;4.30;;
59734;SDS011;64362;45.620;4.920;2023-05-20T14:41:21;5.85;;;4.38;;
59734;SDS011;64362;45.620;4.920;2023-05-20T14:43:53;5.38;;;4.70;;
59734;SDS011;64362;45.620;4.920;2023-05-20T14:46:19;5.60;;;4.35;;
59734;SDS011;64362;45.620;4.920;2023-05-20T14:48:50;5.97;;;4.88;;
59734;SDS011;64362;45.620;4.920;2023-05-20T14:51:16;6.03;;;4.85;;
59734;SDS011;64362;45.620;4.920;2023-05-20T14:53:47;5.95;;;4.50;;
59734;SDS011;64362;45.620;4.920;2023-05-20T14:56:13;6.78;;;4.72;;
59734;SDS011;64362;45.620;4.920;2023-05-20T14:58:44;6.30;;;4.70;;
59734;SDS011;64362;45.620;4.920;2023-05-20T15:01:23;6.05;;;4.57;;